Terminal Aerodrome Forecast
Issued by NWS Wilmington, NC

Home | Current Version | Previous Version | Text Only | Print | Product List | Glossary On
Versions: 1 2 3 4 5 6 7 8 9 10 11 12 13
000
FTUS42 KILM 201720
TAFMYR
TAF
KMYR 201720Z 2018/2118 05010KT P6SM SKC
     FM202100 13011KT P6SM SKC
     FM210000 10005KT P6SM SKC
     FM211500 08009KT P6SM SKC=

USA.gov is the U.S. government's official web portal to all federal, state and local government web resources and services.